createdAt,value
2022-10-24T00:02:23.794Z,5.77
2022-10-24T00:04:50.321Z,6.43
2022-10-24T00:07:16.837Z,6.13
2022-10-24T00:09:43.368Z,6.23
2022-10-24T00:12:09.998Z,5.67
2022-10-24T00:14:36.772Z,6.63
2022-10-24T00:17:04.208Z,6.37
2022-10-24T00:19:30.712Z,6.83
2022-10-24T00:21:57.160Z,5.93
2022-10-24T00:24:25.148Z,6.43
2022-10-24T00:26:52.210Z,7.00
2022-10-24T00:29:18.824Z,5.83
2022-10-24T00:31:45.390Z,6.10
2022-10-24T00:34:11.881Z,6.33
2022-10-24T00:36:38.769Z,5.20
2022-10-24T00:39:05.228Z,5.70
2022-10-24T00:41:38.083Z,6.10
2022-10-24T00:44:17.727Z,7.30
2022-10-24T00:46:50.023Z,6.23
2022-10-24T00:49:21.268Z,6.63
2022-10-24T00:51:51.018Z,6.80
2022-10-24T00:54:17.964Z,6.13
2022-10-24T00:56:55.243Z,6.00
2022-10-24T00:59:22.306Z,6.33
2022-10-24T01:01:49.139Z,6.17
2022-10-24T01:04:15.891Z,5.70
2022-10-24T01:06:47.931Z,6.50
2022-10-24T01:09:14.325Z,5.30
2022-10-24T01:11:56.715Z,5.07
2022-10-24T01:14:37.961Z,5.40
2022-10-24T01:17:09.577Z,5.43
2022-10-24T01:19:38.712Z,6.50
2022-10-24T01:22:22.662Z,5.90
2022-10-24T01:24:51.871Z,5.83
2022-10-24T01:27:33.640Z,5.87
2022-10-24T01:30:13.324Z,5.43
2022-10-24T01:33:44.789Z,5.33
2022-10-24T01:36:18.329Z,6.60
2022-10-24T01:38:50.487Z,6.23
2022-10-24T01:41:21.119Z,6.13
2022-10-24T01:46:29.781Z,5.77
2022-10-24T01:49:09.520Z,6.23
2022-10-24T01:51:38.550Z,6.07
2022-10-24T01:54:07.116Z,5.60
2022-10-24T01:56:33.705Z,5.87
2022-10-24T01:59:29.397Z,5.77
2022-10-24T02:02:08.385Z,5.40
2022-10-24T02:04:41.013Z,4.90
2022-10-24T02:07:10.265Z,5.33
2022-10-24T02:09:38.968Z,4.90
2022-10-24T02:12:09.346Z,5.77
2022-10-24T02:14:46.165Z,5.80
2022-10-24T02:17:12.816Z,6.23
2022-10-24T02:19:39.337Z,6.67
2022-10-24T02:22:23.556Z,6.20
2022-10-24T02:24:55.858Z,6.77
2022-10-24T02:27:28.590Z,6.63
2022-10-24T02:30:06.562Z,6.33
2022-10-24T02:32:38.329Z,6.70
2022-10-24T02:35:06.701Z,5.90
2022-10-24T02:37:39.822Z,6.50
2022-10-24T02:40:08.765Z,6.30
2022-10-24T02:42:36.807Z,6.70
2022-10-24T02:45:04.006Z,6.70
2022-10-24T02:47:32.539Z,6.53
2022-10-24T02:49:59.060Z,6.57
2022-10-24T02:52:26.249Z,5.80
2022-10-24T02:54:52.745Z,6.00
2022-10-24T02:57:21.405Z,6.53
2022-10-24T02:59:47.838Z,6.97
2022-10-24T03:02:14.332Z,6.63
2022-10-24T03:04:40.805Z,6.80
2022-10-24T03:07:07.598Z,7.10
2022-10-24T03:09:34.708Z,7.53
2022-10-24T03:12:01.291Z,6.73
2022-10-24T03:14:27.905Z,6.33
2022-10-24T03:16:54.352Z,6.20
2022-10-24T03:19:20.879Z,6.83
2022-10-24T03:21:47.369Z,6.33
2022-10-24T03:24:15.170Z,6.50
2022-10-24T03:26:52.098Z,5.60
2022-10-24T03:29:19.282Z,5.83
2022-10-24T03:31:46.148Z,6.47
2022-10-24T03:34:12.682Z,6.40
2022-10-24T03:36:39.249Z,5.77
2022-10-24T03:39:05.785Z,5.97
2022-10-24T03:41:32.303Z,6.33
2022-10-24T03:43:58.781Z,5.87
2022-10-24T03:46:25.336Z,6.47
2022-10-24T03:48:51.891Z,6.00
2022-10-24T03:51:18.391Z,7.17
2022-10-24T03:53:44.921Z,6.30
2022-10-24T03:56:11.522Z,6.87
2022-10-24T03:58:38.013Z,6.10
2022-10-24T04:01:04.669Z,6.23
2022-10-24T04:03:31.259Z,6.50
2022-10-24T04:05:57.702Z,6.10
2022-10-24T04:08:24.242Z,6.60
2022-10-24T04:10:50.811Z,6.10
2022-10-24T04:13:17.330Z,6.33
2022-10-24T04:15:43.825Z,5.87
2022-10-24T04:18:10.386Z,6.20
2022-10-24T04:20:36.954Z,6.30
2022-10-24T04:23:04.574Z,6.73
2022-10-24T04:25:31.247Z,6.80
2022-10-24T04:27:57.693Z,5.87
2022-10-24T04:30:24.199Z,5.93
2022-10-24T04:32:50.643Z,6.40
2022-10-24T04:35:17.329Z,6.10
2022-10-24T04:37:43.778Z,6.13
2022-10-24T04:40:10.695Z,6.73
2022-10-24T04:42:37.470Z,6.43
2022-10-24T04:45:04.199Z,6.77
2022-10-24T04:47:30.645Z,6.30
2022-10-24T04:49:57.202Z,6.57
2022-10-24T04:52:23.706Z,6.80
2022-10-24T04:54:50.186Z,6.33
2022-10-24T04:57:16.669Z,5.70
2022-10-24T04:59:43.165Z,6.33
2022-10-24T05:02:09.670Z,6.53
2022-10-24T05:04:36.177Z,6.27
2022-10-24T05:07:02.774Z,6.03
2022-10-24T05:09:29.246Z,5.70
2022-10-24T05:11:56.498Z,5.73
2022-10-24T05:14:23.593Z,5.37
2022-10-24T05:16:50.286Z,4.70
2022-10-24T05:19:17.385Z,5.57
2022-10-24T05:21:43.817Z,5.83
2022-10-24T05:24:10.392Z,5.77
2022-10-24T05:26:36.921Z,5.20
2022-10-24T05:29:03.676Z,4.50
2022-10-24T05:34:01.706Z,4.93
2022-10-24T05:36:28.149Z,5.83
2022-10-24T05:38:54.614Z,5.10
2022-10-24T05:41:21.073Z,5.10
2022-10-24T05:43:47.592Z,4.90
2022-10-24T05:46:14.044Z,4.70
2022-10-24T05:48:40.558Z,5.23
2022-10-24T05:51:07.080Z,4.90
2022-10-24T05:53:33.584Z,4.50
2022-10-24T05:56:00.059Z,3.80
2022-10-24T05:58:27.455Z,4.40
2022-10-24T06:00:54.361Z,4.10
2022-10-24T06:03:21.579Z,4.90
2022-10-24T06:05:48.547Z,4.40
2022-10-24T06:08:15.012Z,4.83
2022-10-24T06:10:41.607Z,4.80
2022-10-24T06:13:08.226Z,5.10
2022-10-24T06:15:34.712Z,4.53
2022-10-24T06:18:01.181Z,4.93
2022-10-24T06:20:27.807Z,4.53
2022-10-24T06:22:54.295Z,5.07
2022-10-24T06:25:20.785Z,5.07
2022-10-24T06:27:48.482Z,4.90
2022-10-24T06:30:15.220Z,4.63
2022-10-24T06:32:44.406Z,5.43
2022-10-24T06:35:13.457Z,4.70
2022-10-24T06:37:42.870Z,5.00
2022-10-24T06:40:12.613Z,4.73
2022-10-24T06:42:39.114Z,4.80
2022-10-24T06:45:06.358Z,5.23
2022-10-24T06:47:32.930Z,4.83
2022-10-24T06:49:59.394Z,5.33
2022-10-24T06:52:25.889Z,5.00
2022-10-24T06:54:52.374Z,5.23
2022-10-24T06:57:18.857Z,5.50
2022-10-24T06:59:45.547Z,5.70
2022-10-24T07:02:16.560Z,5.27
2022-10-24T07:04:43.356Z,5.53
2022-10-24T07:07:16.029Z,5.83
2022-10-24T07:09:42.610Z,6.03
2022-10-24T07:12:09.488Z,6.07
2022-10-24T07:14:36.236Z,5.60
2022-10-24T07:17:04.404Z,5.93
2022-10-24T07:19:33.878Z,6.20
2022-10-24T07:22:03.160Z,5.67
2022-10-24T07:24:29.661Z,6.40
2022-10-24T07:26:56.145Z,6.10
2022-10-24T07:29:22.609Z,5.67
2022-10-24T07:31:49.144Z,6.23
2022-10-24T07:34:16.356Z,5.77
2022-10-24T07:36:43.911Z,5.83
2022-10-24T07:39:11.578Z,5.57
2022-10-24T07:41:41.242Z,5.77
2022-10-24T07:44:08.211Z,5.93
2022-10-24T07:46:34.909Z,5.97
2022-10-24T07:49:01.420Z,5.23
2022-10-24T07:51:29.668Z,4.70
2022-10-24T07:53:59.610Z,5.10
2022-10-24T07:56:26.323Z,3.80
2022-10-24T07:58:52.910Z,4.60
2022-10-24T08:01:22.127Z,4.43
2022-10-24T08:03:49.288Z,4.57
2022-10-24T08:06:19.434Z,3.77
2022-10-24T08:08:46.177Z,4.30
2022-10-24T08:11:21.978Z,3.63
2022-10-24T08:13:49.761Z,3.23
2022-10-24T08:16:18.345Z,3.53
2022-10-24T08:18:45.016Z,3.13
2022-10-24T08:21:14.143Z,3.30
2022-10-24T08:23:44.086Z,3.43
2022-10-24T08:26:13.783Z,3.50
2022-10-24T08:28:41.247Z,3.43
2022-10-24T08:31:11.767Z,3.30
2022-10-24T08:33:38.922Z,2.40
2022-10-24T08:36:13.424Z,3.20
2022-10-24T08:38:40.051Z,2.60
2022-10-24T08:41:06.979Z,2.77
2022-10-24T08:43:33.718Z,2.83
2022-10-24T08:46:28.371Z,3.47
2022-10-24T08:49:08.975Z,2.27
2022-10-24T08:51:43.840Z,2.53
2022-10-24T08:54:14.696Z,2.60
2022-10-24T08:56:41.641Z,2.37
2022-10-24T08:59:12.304Z,2.17
2022-10-24T09:01:50.622Z,2.07
2022-10-24T09:04:21.901Z,2.50
2022-10-24T09:06:51.780Z,1.83
2022-10-24T09:09:18.720Z,2.53
2022-10-24T09:11:48.344Z,2.67
2022-10-24T09:14:18.010Z,1.83
2022-10-24T09:16:49.504Z,1.90
2022-10-24T09:19:20.867Z,2.20
2022-10-24T09:21:48.405Z,2.03
2022-10-24T09:24:27.109Z,2.13
2022-10-24T09:26:53.944Z,2.20
2022-10-24T09:29:20.508Z,2.00
2022-10-24T09:31:49.441Z,1.87
2022-10-24T09:34:17.464Z,2.17
2022-10-24T09:36:44.743Z,1.70
2022-10-24T09:39:23.630Z,2.20
2022-10-24T09:41:50.474Z,1.77
2022-10-24T09:44:49.520Z,1.77
2022-10-24T09:47:27.884Z,1.70
2022-10-24T09:49:55.064Z,1.90
2022-10-24T09:52:24.643Z,1.90
2022-10-24T09:55:17.884Z,2.00
2022-10-24T09:57:45.309Z,1.50
2022-10-24T10:00:32.911Z,1.90
2022-10-24T10:03:02.501Z,1.70
2022-10-24T10:05:44.293Z,1.80
2022-10-24T10:08:18.823Z,1.50
2022-10-24T10:10:56.595Z,1.80
2022-10-24T10:13:25.304Z,1.60
2022-10-24T10:16:04.007Z,1.57
2022-10-24T10:18:39.633Z,1.90
2022-10-24T10:21:25.165Z,1.70
2022-10-24T10:23:56.897Z,1.47
2022-10-24T10:26:24.994Z,1.40
2022-10-24T10:29:06.841Z,1.60
2022-10-24T10:31:43.971Z,1.83
2022-10-24T10:34:30.974Z,1.37
2022-10-24T10:37:18.938Z,1.30
2022-10-24T10:40:08.344Z,1.40
2022-10-24T10:42:41.930Z,1.70
2022-10-24T10:45:22.225Z,1.40
2022-10-24T10:48:07.505Z,1.37
2022-10-24T10:50:48.334Z,1.20
2022-10-24T10:53:40.358Z,1.20
2022-10-24T10:56:15.692Z,1.20
2022-10-24T10:58:52.095Z,1.53
2022-10-24T11:01:27.982Z,1.47
2022-10-24T11:04:21.014Z,1.10
2022-10-24T11:07:14.954Z,1.20
2022-10-24T11:09:46.771Z,1.07
2022-10-24T11:12:19.314Z,1.13
2022-10-24T11:15:00.686Z,1.17
2022-10-24T11:17:32.373Z,1.10
2022-10-24T11:20:07.449Z,1.20
2022-10-24T11:22:50.898Z,1.20
2022-10-24T11:26:02.450Z,1.40
2022-10-24T11:28:44.617Z,1.40
2022-10-24T11:31:18.705Z,0.90
2022-10-24T11:34:00.517Z,1.10
2022-10-24T11:37:06.061Z,0.90
2022-10-24T11:39:35.585Z,1.07
2022-10-24T11:42:12.665Z,1.20
2022-10-24T11:45:01.141Z,0.90
2022-10-24T11:47:27.595Z,1.13
2022-10-24T11:50:00.987Z,0.90
2022-10-24T11:52:30.916Z,0.90
2022-10-24T11:55:13.308Z,0.97
2022-10-24T11:57:45.381Z,1.07
2022-10-24T12:00:48.325Z,1.00
2022-10-24T12:03:24.762Z,1.00
2022-10-24T12:06:20.226Z,1.20
2022-10-24T12:09:05.494Z,0.90
2022-10-24T12:11:53.986Z,1.10
2022-10-24T12:14:29.760Z,1.43
2022-10-24T12:17:18.958Z,1.20
2022-10-24T12:19:46.588Z,1.40
2022-10-24T12:22:23.631Z,1.00
2022-10-24T12:25:03.955Z,1.40
2022-10-24T12:27:35.652Z,1.30
2022-10-24T12:30:21.764Z,1.10
2022-10-24T12:32:52.338Z,1.00
2022-10-24T12:35:31.711Z,1.20
2022-10-24T12:37:58.873Z,1.30
2022-10-24T12:40:52.124Z,1.37
2022-10-24T12:43:36.488Z,0.90
2022-10-24T12:46:18.852Z,1.10
2022-10-24T12:48:58.403Z,1.10
2022-10-24T12:51:40.642Z,0.80
2022-10-24T12:54:13.316Z,0.90
2022-10-24T12:57:09.396Z,0.80
2022-10-24T12:59:51.450Z,0.93
2022-10-24T13:02:21.123Z,1.17
2022-10-24T13:05:07.964Z,0.80
2022-10-24T13:07:47.119Z,0.80
2022-10-24T13:10:37.624Z,0.77
2022-10-24T13:13:29.020Z,0.60
2022-10-24T13:16:10.922Z,0.70
2022-10-24T13:19:17.142Z,0.60
2022-10-24T13:21:47.594Z,0.80
2022-10-24T13:24:16.841Z,0.80
2022-10-24T13:26:58.420Z,0.67
2022-10-24T13:29:27.968Z,0.70
2022-10-24T13:32:16.318Z,0.73
2022-10-24T13:34:54.718Z,0.53
2022-10-24T13:37:34.946Z,0.43
2022-10-24T13:40:33.758Z,0.50
2022-10-24T13:43:07.542Z,0.40
2022-10-24T13:46:00.177Z,0.40
2022-10-24T13:48:34.819Z,0.57
2022-10-24T13:51:20.213Z,0.50
2022-10-24T13:53:58.963Z,0.50
2022-10-24T13:56:26.488Z,0.83
2022-10-24T13:58:53.117Z,0.70
2022-10-24T14:01:27.329Z,0.60
2022-10-24T14:03:55.405Z,1.00
2022-10-24T14:06:27.580Z,0.60
2022-10-24T14:09:06.736Z,0.60
2022-10-24T14:11:52.855Z,0.60
2022-10-24T14:15:27.183Z,0.60
2022-10-24T14:18:54.804Z,0.50
2022-10-24T14:25:30.844Z,0.50
2022-10-24T14:28:32.159Z,0.57
2022-10-24T14:31:05.498Z,0.70
2022-10-24T14:33:42.065Z,0.60
2022-10-24T14:36:09.495Z,0.70
2022-10-24T14:38:36.473Z,0.50
2022-10-24T14:41:10.431Z,0.67
2022-10-24T14:43:42.194Z,0.70
2022-10-24T14:46:12.264Z,0.70
2022-10-24T14:48:41.968Z,0.83
2022-10-24T14:51:20.937Z,0.80
2022-10-24T14:53:50.129Z,0.60
2022-10-24T14:56:36.812Z,0.87
2022-10-24T14:59:07.189Z,0.60
2022-10-24T15:01:34.057Z,0.70
2022-10-24T15:04:03.584Z,0.60
2022-10-24T15:06:38.230Z,0.60
2022-10-24T15:09:10.914Z,0.73
2022-10-24T15:12:03.271Z,0.80
2022-10-24T15:14:41.340Z,0.67
2022-10-24T15:17:17.099Z,0.90
2022-10-24T15:19:46.095Z,0.80
2022-10-24T15:22:30.195Z,0.60
2022-10-24T15:25:00.133Z,0.70
2022-10-24T15:27:30.551Z,0.80
2022-10-24T15:29:57.307Z,0.80
2022-10-24T15:32:24.368Z,0.90
2022-10-24T15:34:54.350Z,0.87
2022-10-24T15:37:24.310Z,0.63
2022-10-24T15:39:52.890Z,0.70
2022-10-24T15:42:22.554Z,0.90
2022-10-24T15:44:49.412Z,0.70
2022-10-24T15:47:16.019Z,1.07
2022-10-24T15:49:42.650Z,0.80
2022-10-24T15:52:15.515Z,0.60
2022-10-24T15:54:42.284Z,0.80
2022-10-24T15:57:13.147Z,0.97
2022-10-24T15:59:39.949Z,0.80
2022-10-24T16:02:16.291Z,0.77
2022-10-24T16:04:42.977Z,0.80
2022-10-24T16:07:10.590Z,0.83
2022-10-24T16:09:37.240Z,0.90
2022-10-24T16:12:04.335Z,0.90
2022-10-24T16:14:30.966Z,1.00
2022-10-24T16:16:58.469Z,0.87
2022-10-24T16:19:28.966Z,1.03
2022-10-24T16:21:59.590Z,1.00
2022-10-24T16:24:27.229Z,0.90
2022-10-24T16:26:54.147Z,1.00
2022-10-24T16:29:20.822Z,0.90
2022-10-24T16:31:49.028Z,1.10
2022-10-24T16:34:15.586Z,1.10
2022-10-24T16:36:42.262Z,0.93
2022-10-24T16:39:09.254Z,1.20
2022-10-24T16:41:35.963Z,1.20
2022-10-24T16:44:03.723Z,1.17
2022-10-24T16:46:30.684Z,1.00
2022-10-24T16:48:58.255Z,1.03
2022-10-24T16:51:32.418Z,0.90
2022-10-24T16:54:01.142Z,1.00
2022-10-24T16:56:28.106Z,1.20
2022-10-24T16:58:54.630Z,1.10
2022-10-24T17:01:23.159Z,1.27
2022-10-24T17:03:49.775Z,1.43
2022-10-24T17:06:16.344Z,1.20
2022-10-24T17:08:43.333Z,1.20
2022-10-24T17:11:32.279Z,1.87
2022-10-24T17:13:58.028Z,1.10
2022-10-24T17:16:24.734Z,1.10
2022-10-24T17:19:05.420Z,1.20
2022-10-24T17:21:39.053Z,1.87
2022-10-24T17:24:10.303Z,1.20
2022-10-24T17:26:36.957Z,1.40
2022-10-24T17:29:04.735Z,1.70
2022-10-24T17:31:31.520Z,1.63
2022-10-24T17:33:58.343Z,1.00
2022-10-24T17:36:28.124Z,1.20
2022-10-24T17:39:07.616Z,1.60
2022-10-24T17:41:40.738Z,1.40
2022-10-24T17:44:14.298Z,1.43
2022-10-24T17:46:40.998Z,1.40
2022-10-24T17:49:10.540Z,1.30
2022-10-24T17:51:39.866Z,1.50
2022-10-24T17:54:09.088Z,1.70
2022-10-24T17:56:35.786Z,1.40
2022-10-24T17:59:02.543Z,1.40
2022-10-24T18:01:29.250Z,1.30
2022-10-24T18:03:55.902Z,1.70
2022-10-24T18:06:22.484Z,2.17
2022-10-24T18:08:53.355Z,2.63
2022-10-24T18:11:19.932Z,4.20
2022-10-24T18:13:46.421Z,5.43
2022-10-24T18:16:15.709Z,6.93
2022-10-24T18:18:43.911Z,6.53
2022-10-24T18:23:46.715Z,4.87
2022-10-24T18:26:17.838Z,4.33
2022-10-24T18:28:46.730Z,4.50
2022-10-24T18:31:15.946Z,4.70
2022-10-24T18:33:43.255Z,4.73
2022-10-24T18:36:25.657Z,4.10
2022-10-24T18:38:59.094Z,4.60
2022-10-24T18:41:37.572Z,4.33
2022-10-24T18:44:23.213Z,3.87
2022-10-24T18:46:51.815Z,4.33
2022-10-24T18:49:19.276Z,4.03
2022-10-24T18:52:10.439Z,4.60
2022-10-24T18:54:53.649Z,4.97
2022-10-24T18:57:27.090Z,4.47
2022-10-24T18:59:54.815Z,4.90
2022-10-24T19:05:25.010Z,3.00
2022-10-24T19:07:51.936Z,3.53
2022-10-24T19:10:27.073Z,4.00
2022-10-24T19:12:57.413Z,4.60
2022-10-24T19:15:24.460Z,4.50
2022-10-24T19:17:51.774Z,3.73
2022-10-24T19:20:21.432Z,4.27
2022-10-24T19:22:48.667Z,3.60
2022-10-24T19:25:16.571Z,3.53
2022-10-24T19:27:43.533Z,3.13
2022-10-24T19:30:11.620Z,3.10
2022-10-24T19:32:38.329Z,2.60
2022-10-24T19:35:05.236Z,2.90
2022-10-24T19:37:31.810Z,2.80
2022-10-24T19:39:58.303Z,2.60
2022-10-24T19:42:24.894Z,2.50
2022-10-24T19:44:54.466Z,2.30
2022-10-24T19:47:21.769Z,1.97
2022-10-24T19:49:49.404Z,1.37
2022-10-24T19:52:16.177Z,1.70
2022-10-24T19:54:42.724Z,1.50
2022-10-24T19:57:09.519Z,1.50
2022-10-24T19:59:36.262Z,1.50
2022-10-24T20:02:04.348Z,1.30
2022-10-24T20:04:31.560Z,1.33
2022-10-24T20:06:58.113Z,1.50
2022-10-24T20:09:24.650Z,1.30
2022-10-24T20:11:51.194Z,1.00
2022-10-24T20:14:17.898Z,1.20
2022-10-24T20:16:44.425Z,1.10
2022-10-24T20:19:10.948Z,1.40
2022-10-24T20:21:37.754Z,1.00
2022-10-24T20:24:08.805Z,1.00
2022-10-24T20:26:36.116Z,1.13
2022-10-24T20:29:03.827Z,1.00
2022-10-24T20:31:34.041Z,1.10
2022-10-24T20:34:07.052Z,1.10
2022-10-24T20:36:35.779Z,1.00
2022-10-24T20:39:03.221Z,0.97
2022-10-24T20:41:29.965Z,0.90
2022-10-24T20:43:56.654Z,1.03
2022-10-24T20:46:23.239Z,1.00
2022-10-24T20:48:49.746Z,1.00
2022-10-24T20:51:18.973Z,1.00
2022-10-24T20:53:45.588Z,0.97
2022-10-24T20:56:14.929Z,0.80
2022-10-24T20:58:43.024Z,1.00
2022-10-24T21:01:12.681Z,1.00
2022-10-24T21:03:39.498Z,0.70
2022-10-24T21:06:14.244Z,1.10
2022-10-24T21:08:40.816Z,0.93
2022-10-24T21:11:07.799Z,0.90
2022-10-24T21:13:34.304Z,0.90
2022-10-24T21:16:02.077Z,1.00
2022-10-24T21:18:28.555Z,0.93
2022-10-24T21:20:54.970Z,2.43
2022-10-24T21:23:21.422Z,1.80
2022-10-24T21:25:47.916Z,2.20
2022-10-24T21:28:14.406Z,1.80
2022-10-24T21:30:40.867Z,1.30
2022-10-24T21:33:10.589Z,1.20
2022-10-24T21:35:39.909Z,1.00
2022-10-24T21:38:06.488Z,0.70
2022-10-24T21:40:32.968Z,0.97
2022-10-24T21:43:00.961Z,0.80
2022-10-24T21:45:27.456Z,0.80
2022-10-24T21:47:53.891Z,0.90
2022-10-24T21:50:20.378Z,0.87
2022-10-24T21:52:47.111Z,0.80
2022-10-24T21:55:13.879Z,0.80
2022-10-24T21:57:40.328Z,0.73
2022-10-24T22:00:07.550Z,1.07
2022-10-24T22:02:34.082Z,0.70
2022-10-24T22:05:00.613Z,1.10
2022-10-24T22:09:58.448Z,0.80
2022-10-24T22:12:25.268Z,0.80
2022-10-24T22:14:51.706Z,0.70
2022-10-24T22:17:18.158Z,0.77
2022-10-24T22:19:44.656Z,0.87
2022-10-24T22:22:11.106Z,0.67
2022-10-24T22:24:37.592Z,0.70
2022-10-24T22:27:04.116Z,0.70
2022-10-24T22:29:30.599Z,0.70
2022-10-24T22:31:57.365Z,0.70
2022-10-24T22:34:25.384Z,0.70
2022-10-24T22:37:24.848Z,0.60
2022-10-24T22:39:51.621Z,0.60
2022-10-24T22:42:20.203Z,0.90
2022-10-24T22:44:47.919Z,0.60
2022-10-24T22:48:03.129Z,0.80
2022-10-24T22:50:54.705Z,0.70
2022-10-24T22:53:31.095Z,0.70
2022-10-24T22:56:22.469Z,0.73
2022-10-24T22:58:49.548Z,0.60
2022-10-24T23:01:23.989Z,0.90
2022-10-24T23:04:18.003Z,0.80
2022-10-24T23:06:48.548Z,0.60
2022-10-24T23:09:15.028Z,0.80
2022-10-24T23:11:41.975Z,0.93
2022-10-24T23:14:10.251Z,0.60
2022-10-24T23:16:50.257Z,0.80
2022-10-24T23:19:20.481Z,0.80
2022-10-24T23:21:52.528Z,0.70
2022-10-24T23:24:19.457Z,0.70
2022-10-24T23:26:54.862Z,0.80
2022-10-24T23:29:33.109Z,0.60
2022-10-24T23:32:00.322Z,0.70
2022-10-24T23:34:27.634Z,0.80
2022-10-24T23:37:03.827Z,0.60
2022-10-24T23:39:33.220Z,1.17
2022-10-24T23:42:01.042Z,0.60
2022-10-24T23:44:27.971Z,0.80
2022-10-24T23:47:05.683Z,0.70
2022-10-24T23:49:40.035Z,0.70
2022-10-24T23:52:28.534Z,0.67
2022-10-24T23:54:55.324Z,0.50
2022-10-24T23:57:22.075Z,0.50
2022-10-24T23:59:48.527Z,0.60
